New Orleans, Louisiana
Traffic Map
Current Weather Conditions
New Orleans, Louisiana
Scattered Clouds
Scattered Clouds
26°
Feels Like: 27°
Wind Chill: 26° Ceiling: Unl
Heat Index: 27° Visibility: 10mi
Dew Point: 18° Wind: 8mph
Humidity: 61% Direction: 60° (ENE)
Pressure: 30.05in Gusts: 0mph
Raw Report DataKVSH 311315Z AUTO 06007KT 10SM SCT046 26/18 A3005 RMK AO1
Traffic Incident Summary
Active as of:
Severity:
Category:
InformationThere was an issue retrieving the traffic information for this location. Please try a different location or try again shortly.
Advertisements
Track Severe Weather on mobile